Gazi — 9HA2542 — position and weather

sailwx.info

Track history (hours):
 
Tides and Currents Weather Stations Pressure Air Temp Water Temp Dewpoint Dewpoint Depression Visibility Wind Speed Wind Dir Waves Ship Positions

Gazi

Last reported at 2014-Nov-22 16:33 UTC. Time now 2014-Nov-23 07:14 UTC.
Position N 42°06' E 005°54'.

Length 146 m; draft 9.2 m.

Type: Ship. MMSI: 248841000.

Date/timePositionNaut miles runAvg speedWind from/ knotsBaromVisibWave heightAir tempDewpointWater temp
2014-Nov-22 16:33N 42°06' E 005°54'1110.2
2014-Nov-22 15:30N 42°15' E 005°46'1410.4
2014-Nov-22 14:10N 42°27' E 005°37'10 9.8
2014-Nov-22 13:06N 42°36' E 005°30'5 9.4
2014-Nov-22 12:33N 42°40' E 005°26'10 9.7
2014-Nov-22 11:33N 42°49' E 005°19'2010.0
2014-Nov-22 09:33N 43°06' E 005°06'1010.0
2014-Nov-22 08:33N 43°15' E 004°60'8 7.7
2014-Nov-22 07:33N 43°23' E 004°57'5 4.4
2014-Nov-22 06:30N 43°26' E 004°53'0 0.0
2014-Nov-22 05:30N 43°26' E 004°53'0 0.0
2014-Nov-22 04:24N 43°26' E 004°53'0 0.0
2014-Nov-22 03:30N 43°26' E 004°53'0 0.0
2014-Nov-22 02:30N 43°26' E 004°53'0 0.0
2014-Nov-22 01:30N 43°26' E 004°53'0 0.0
2014-Nov-22 00:30N 43°26' E 004°53'0 0.0
2014-Nov-21 23:30N 43°26' E 004°53'0 0.0
2014-Nov-21 22:30N 43°26' E 004°53'0 0.0
2014-Nov-21 21:30N 43°26' E 004°53'0 0.0
2014-Nov-21 20:24N 43°26' E 004°53'0 0.0
2014-Nov-21 19:30N 43°26' E 004°53'0 0.0
2014-Nov-21 18:31N 43°26' E 004°53'0 0.0
2014-Nov-21 17:31N 43°26' E 004°53'0 0.0
2014-Nov-21 16:31N 43°26' E 004°53'0 0.0
2014-Nov-21 15:31N 43°26' E 004°53'0 0.0
2014-Nov-21 14:31N 43°26' E 004°53'0 0.0
2014-Nov-21 13:31N 43°26' E 004°53'0 0.0
2014-Nov-21 12:32N 43°26' E 004°53'0 0.0
2014-Nov-21 11:32N 43°26' E 004°53'0 0.0
2014-Nov-21 10:32N 43°26' E 004°53'0 0.0
2014-Nov-21 09:32N 43°26' E 004°53'0 0.0
2014-Nov-21 08:32N 43°26' E 004°53'0 0.0
2014-Nov-21 07:32N 43°26' E 004°53'0 0.0
2014-Nov-21 06:32N 43°26' E 004°53'0 0.0
2014-Nov-21 05:30N 43°26' E 004°53'0 0.0
2014-Nov-21 04:32N 43°26' E 004°53'0 0.0
2014-Nov-21 03:32N 43°26' E 004°53'0 0.0
2014-Nov-21 02:32N 43°26' E 004°53'0 0.0
2014-Nov-21 01:30N 43°26' E 004°53'0 0.0
2014-Nov-21 00:32N 43°26' E 004°53'0 0.0
2014-Nov-20 23:32N 43°26' E 004°53'0 0.0
2014-Nov-20 22:32N 43°26' E 004°53'0 0.0
2014-Nov-20 21:30N 43°26' E 004°53'0 0.0
2014-Nov-20 20:32N 43°26' E 004°53'0 0.0
2014-Nov-20 19:32N 43°26' E 004°53'0 0.0
2014-Nov-20 18:33N 43°26' E 004°53'0 0.0
2014-Nov-20 17:33N 43°26' E 004°53'0 0.0
2014-Nov-20 16:33N 43°26' E 004°53'0 0.0
2014-Nov-20 15:30N 43°26' E 004°53'0 0.0
2014-Nov-20 14:30N 43°26' E 004°53'0 0.0
2014-Nov-20 13:33N 43°26' E 004°53'0 0.0
2014-Nov-20 12:33N 43°26' E 004°53'0 0.0
2014-Nov-20 11:33N 43°26' E 004°53'0 0.0
2014-Nov-20 10:33N 43°26' E 004°53'0 0.0
2014-Nov-20 09:33N 43°26' E 004°53'0 0.0
2014-Nov-20 08:33N 43°26' E 004°53'0 0.0
2014-Nov-20 07:33N 43°26' E 004°53'0 0.0
2014-Nov-20 06:33N 43°26' E 004°53'0 0.0
2014-Nov-20 05:27N 43°26' E 004°53'0 0.0
2014-Nov-20 04:27N 43°26' E 004°53'0 0.0
2014-Nov-20 03:33N 43°26' E 004°53'0 0.0
2014-Nov-20 02:33N 43°26' E 004°53'0 0.0
2014-Nov-20 01:33N 43°26' E 004°53'0 0.0
2014-Nov-20 00:33N 43°26' E 004°53'0 0.0
2014-Nov-19 23:31N 43°26' E 004°53'0 0.0
2014-Nov-19 22:31N 43°26' E 004°53'0 0.0
2014-Nov-19 21:28N 43°26' E 004°53'0 0.0
2014-Nov-19 20:31N 43°26' E 004°53'0 0.0
2014-Nov-19 19:28N 43°26' E 004°53'0 0.0
2014-Nov-19 18:31N 43°26' E 004°53'0 0.0
2014-Nov-19 17:28N 43°26' E 004°53'0 0.0
2014-Nov-19 16:22N 43°26' E 004°53'0 0.0
2014-Nov-19 15:31N 43°26' E 004°53'0 0.0
2014-Nov-19 14:31N 43°26' E 004°53'0 0.0
2014-Nov-19 13:31N 43°26' E 004°53'0 0.0
2014-Nov-19 12:22N 43°26' E 004°53'0 0.0
2014-Nov-19 11:34N 43°26' E 004°53'6 6.5
2014-Nov-19 10:34N 43°21' E 004°59'8 8.3
2014-Nov-19 09:33N 43°13' E 005°02'10 9.9
2014-Nov-19 08:33N 43°04' E 005°09'1212.4
2014-Nov-19 07:33N 42°53' E 005°17'1412.6
2014-Nov-19 06:28N 42°42' E 005°26'22411.2
2014-Nov-18 10:30N 39°28' E 007°55'2410.9
2014-Nov-18 08:21N 39°07' E 008°10'910.9
2014-Nov-18 07:33N 38°60' E 008°16'1210.7
2014-Nov-18 06:27N 38°53' E 008°28'1010.6
2014-Nov-18 05:28N 38°47' E 008°39'1010.9
2014-Nov-18 04:32N 38°42' E 008°50'1010.6
2014-Nov-18 03:33N 38°36' E 009°01'10110.7
2014-Nov-17 18:06N 37°40' E 010°48'710.6
2014-Nov-17 17:27N 37°37' E 010°56'5710.8
2014-Nov-17 12:11N 37°15' E 012°02'7911.7
2014-Nov-17 05:28N 36°53' E 013°37'1011.1
2014-Nov-17 04:34N 36°50' E 013°49'1111.5
2014-Nov-17 03:34N 36°47' E 014°02'1111.4
2014-Nov-17 02:34N 36°44' E 014°16'1111.3
2014-Nov-17 01:33N 36°41' E 014°30'  
2014-Nov-13 18:33N 34°33' E 032°35'1211.8
2014-Nov-13 17:33N 34°32' E 032°50'1111.4
2014-Nov-13 16:34N 34°32' E 033°03'1211.5
2014-Nov-13 15:33N 34°38' E 033°15'6 6.1
2014-Nov-13 14:34N 34°43' E 033°19'0 0.0
2014-Nov-13 13:28N 34°43' E 033°19'0 0.0
2014-Nov-13 12:32N 34°43' E 033°19'0 0.0
2014-Nov-13 11:32N 34°43' E 033°19'0 0.0
2014-Nov-13 10:32N 34°43' E 033°19'0 0.0
2014-Nov-13 09:28N 34°43' E 033°19'0 0.0
2014-Nov-13 08:32N 34°43' E 033°19'0 0.0
2014-Nov-13 07:32N 34°43' E 033°19'0 0.0
2014-Nov-13 06:32N 34°43' E 033°19'0 0.0
2014-Nov-13 05:32N 34°43' E 033°19'0 0.0
2014-Nov-13 04:28N 34°43' E 033°19'0 0.0
2014-Nov-13 03:32N 34°43' E 033°19'0 0.0
2014-Nov-13 02:32N 34°43' E 033°19'0 0.0
2014-Nov-13 01:32N 34°43' E 033°19'0 0.0
2014-Nov-13 00:34N 34°43' E 033°19'0 0.0
2014-Nov-12 23:22N 34°43' E 033°19'0 0.0
2014-Nov-12 22:33N 34°43' E 033°19'0 0.0
2014-Nov-12 21:28N 34°43' E 033°19'0 0.0
2014-Nov-12 20:33N 34°43' E 033°19'0 0.0
2014-Nov-12 19:28N 34°43' E 033°19'0 0.0
2014-Nov-12 18:30N 34°43' E 033°19'0 0.0
2014-Nov-12 17:12N 34°43' E 033°19'  
Track history (hours):
 
Tides and Currents Weather Stations Pressure Air Temp Water Temp Dewpoint Dewpoint Depression Visibility Wind Speed Wind Dir Waves Ship Positions

Gazi

Last reported at 2014-Nov-22 16:33 UTC. Time now 2014-Nov-23 07:14 UTC.
Position N 42°06' E 005°54'.

Length 146 m; draft 9.2 m.

Type: Ship. MMSI: 248841000.

Date/timePositionNaut miles runAvg speedWind from/ knotsBaromVisibWave heightAir tempDewpointWater temp
2014-Nov-22 16:33N 42°06' E 005°54'1110.2
2014-Nov-22 15:30N 42°15' E 005°46'1410.4
2014-Nov-22 14:10N 42°27' E 005°37'10 9.8
2014-Nov-22 13:06N 42°36' E 005°30'5 9.4
2014-Nov-22 12:33N 42°40' E 005°26'10 9.7
2014-Nov-22 11:33N 42°49' E 005°19'2010.0
2014-Nov-22 09:33N 43°06' E 005°06'1010.0
2014-Nov-22 08:33N 43°15' E 004°60'8 7.7
2014-Nov-22 07:33N 43°23' E 004°57'5 4.4
2014-Nov-22 06:30N 43°26' E 004°53'0 0.0
2014-Nov-22 05:30N 43°26' E 004°53'0 0.0
2014-Nov-22 04:24N 43°26' E 004°53'0 0.0
2014-Nov-22 03:30N 43°26' E 004°53'0 0.0
2014-Nov-22 02:30N 43°26' E 004°53'0 0.0
2014-Nov-22 01:30N 43°26' E 004°53'0 0.0
2014-Nov-22 00:30N 43°26' E 004°53'0 0.0
2014-Nov-21 23:30N 43°26' E 004°53'0 0.0
2014-Nov-21 22:30N 43°26' E 004°53'0 0.0
2014-Nov-21 21:30N 43°26' E 004°53'0 0.0
2014-Nov-21 20:24N 43°26' E 004°53'0 0.0
2014-Nov-21 19:30N 43°26' E 004°53'0 0.0
2014-Nov-21 18:31N 43°26' E 004°53'0 0.0
2014-Nov-21 17:31N 43°26' E 004°53'0 0.0
2014-Nov-21 16:31N 43°26' E 004°53'0 0.0
2014-Nov-21 15:31N 43°26' E 004°53'0 0.0
2014-Nov-21 14:31N 43°26' E 004°53'0 0.0
2014-Nov-21 13:31N 43°26' E 004°53'0 0.0
2014-Nov-21 12:32N 43°26' E 004°53'0 0.0
2014-Nov-21 11:32N 43°26' E 004°53'0 0.0
2014-Nov-21 10:32N 43°26' E 004°53'0 0.0
2014-Nov-21 09:32N 43°26' E 004°53'0 0.0
2014-Nov-21 08:32N 43°26' E 004°53'0 0.0
2014-Nov-21 07:32N 43°26' E 004°53'0 0.0
2014-Nov-21 06:32N 43°26' E 004°53'0 0.0
2014-Nov-21 05:30N 43°26' E 004°53'0 0.0
2014-Nov-21 04:32N 43°26' E 004°53'0 0.0
2014-Nov-21 03:32N 43°26' E 004°53'0 0.0
2014-Nov-21 02:32N 43°26' E 004°53'0 0.0
2014-Nov-21 01:30N 43°26' E 004°53'0 0.0
2014-Nov-21 00:32N 43°26' E 004°53'0 0.0
2014-Nov-20 23:32N 43°26' E 004°53'0 0.0
2014-Nov-20 22:32N 43°26' E 004°53'0 0.0
2014-Nov-20 21:30N 43°26' E 004°53'0 0.0
2014-Nov-20 20:32N 43°26' E 004°53'0 0.0
2014-Nov-20 19:32N 43°26' E 004°53'0 0.0
2014-Nov-20 18:33N 43°26' E 004°53'0 0.0
2014-Nov-20 17:33N 43°26' E 004°53'0 0.0
2014-Nov-20 16:33N 43°26' E 004°53'0 0.0
2014-Nov-20 15:30N 43°26' E 004°53'0 0.0
2014-Nov-20 14:30N 43°26' E 004°53'0 0.0
2014-Nov-20 13:33N 43°26' E 004°53'0 0.0
2014-Nov-20 12:33N 43°26' E 004°53'0 0.0
2014-Nov-20 11:33N 43°26' E 004°53'0 0.0
2014-Nov-20 10:33N 43°26' E 004°53'0 0.0
2014-Nov-20 09:33N 43°26' E 004°53'0 0.0
2014-Nov-20 08:33N 43°26' E 004°53'0 0.0
2014-Nov-20 07:33N 43°26' E 004°53'0 0.0
2014-Nov-20 06:33N 43°26' E 004°53'0 0.0
2014-Nov-20 05:27N 43°26' E 004°53'0 0.0
2014-Nov-20 04:27N 43°26' E 004°53'0 0.0
2014-Nov-20 03:33N 43°26' E 004°53'0 0.0
2014-Nov-20 02:33N 43°26' E 004°53'0 0.0
2014-Nov-20 01:33N 43°26' E 004°53'0 0.0
2014-Nov-20 00:33N 43°26' E 004°53'0 0.0
2014-Nov-19 23:31N 43°26' E 004°53'0 0.0
2014-Nov-19 22:31N 43°26' E 004°53'0 0.0
2014-Nov-19 21:28N 43°26' E 004°53'0 0.0
2014-Nov-19 20:31N 43°26' E 004°53'0 0.0
2014-Nov-19 19:28N 43°26' E 004°53'0 0.0
2014-Nov-19 18:31N 43°26' E 004°53'0 0.0
2014-Nov-19 17:28N 43°26' E 004°53'0 0.0
2014-Nov-19 16:22N 43°26' E 004°53'0 0.0
2014-Nov-19 15:31N 43°26' E 004°53'0 0.0
2014-Nov-19 14:31N 43°26' E 004°53'0 0.0
2014-Nov-19 13:31N 43°26' E 004°53'0 0.0
2014-Nov-19 12:22N 43°26' E 004°53'0 0.0
2014-Nov-19 11:34N 43°26' E 004°53'6 6.5
2014-Nov-19 10:34N 43°21' E 004°59'8 8.3
2014-Nov-19 09:33N 43°13' E 005°02'10 9.9
2014-Nov-19 08:33N 43°04' E 005°09'1212.4
2014-Nov-19 07:33N 42°53' E 005°17'1412.6
2014-Nov-19 06:28N 42°42' E 005°26'22411.2
2014-Nov-18 10:30N 39°28' E 007°55'2410.9
2014-Nov-18 08:21N 39°07' E 008°10'910.9
2014-Nov-18 07:33N 38°60' E 008°16'1210.7
2014-Nov-18 06:27N 38°53' E 008°28'1010.6
2014-Nov-18 05:28N 38°47' E 008°39'1010.9
2014-Nov-18 04:32N 38°42' E 008°50'1010.6
2014-Nov-18 03:33N 38°36' E 009°01'10110.7
2014-Nov-17 18:06N 37°40' E 010°48'710.6
2014-Nov-17 17:27N 37°37' E 010°56'5710.8
2014-Nov-17 12:11N 37°15' E 012°02'7911.7
2014-Nov-17 05:28N 36°53' E 013°37'1011.1
2014-Nov-17 04:34N 36°50' E 013°49'1111.5
2014-Nov-17 03:34N 36°47' E 014°02'1111.4
2014-Nov-17 02:34N 36°44' E 014°16'1111.3
2014-Nov-17 01:33N 36°41' E 014°30'  
2014-Nov-13 18:33N 34°33' E 032°35'1211.8
2014-Nov-13 17:33N 34°32' E 032°50'1111.4
2014-Nov-13 16:34N 34°32' E 033°03'1211.5
2014-Nov-13 15:33N 34°38' E 033°15'6 6.1
2014-Nov-13 14:34N 34°43' E 033°19'0 0.0
2014-Nov-13 13:28N 34°43' E 033°19'0 0.0
2014-Nov-13 12:32N 34°43' E 033°19'0 0.0
2014-Nov-13 11:32N 34°43' E 033°19'0 0.0
2014-Nov-13 10:32N 34°43' E 033°19'0 0.0
2014-Nov-13 09:28N 34°43' E 033°19'0 0.0
2014-Nov-13 08:32N 34°43' E 033°19'0 0.0
2014-Nov-13 07:32N 34°43' E 033°19'0 0.0
2014-Nov-13 06:32N 34°43' E 033°19'0 0.0
2014-Nov-13 05:32N 34°43' E 033°19'0 0.0
2014-Nov-13 04:28N 34°43' E 033°19'0 0.0
2014-Nov-13 03:32N 34°43' E 033°19'0 0.0
2014-Nov-13 02:32N 34°43' E 033°19'0 0.0
2014-Nov-13 01:32N 34°43' E 033°19'0 0.0
2014-Nov-13 00:34N 34°43' E 033°19'0 0.0
2014-Nov-12 23:22N 34°43' E 033°19'0 0.0
2014-Nov-12 22:33N 34°43' E 033°19'0 0.0
2014-Nov-12 21:28N 34°43' E 033°19'0 0.0
2014-Nov-12 20:33N 34°43' E 033°19'0 0.0
2014-Nov-12 19:28N 34°43' E 033°19'0 0.0
2014-Nov-12 18:30N 34°43' E 033°19'0 0.0
2014-Nov-12 17:12N 34°43' E 033°19'  

Dump ship's entire track history